Terminal Aerodrome Forecast
Issued by NWS Missoula, MT

Home | Current Version | Previous Version | Text Only | Print | Product List | Glossary On
Versions: 1 2 3 4 5 6 7 8 9 10 11 12 13
000
FTUS45 KMSO 270619 AAA
TAFGPI
TAF AMD
KGPI 270619Z 2706/2806 VRB04KT 5SM -SHRA BKN020 OVC050
     FM270630 VRB04KT P6SM VCSH BKN040 OVC050
     FM271500 19006KT 6SM -SHRA OVC035
     FM271800 18007KT P6SM VCSH BKN035 OVC050
     FM280000 VRB04KT P6SM BKN060=

USA.gov is the U.S. government's official web portal to all federal, state and local government web resources and services.